createdAt,value
2019-05-21T00:01:03.153Z,12.15
2019-05-21T00:03:36.363Z,14.53
2019-05-21T00:06:09.522Z,14.47
2019-05-21T00:08:42.737Z,14.78
2019-05-21T00:11:15.956Z,14.43
2019-05-21T00:13:49.093Z,12.43
2019-05-21T00:16:22.414Z,11.45
2019-05-21T00:18:55.612Z,14.10
2019-05-21T00:21:28.870Z,11.95
2019-05-21T00:24:02.081Z,14.10
2019-05-21T00:26:35.293Z,11.63
2019-05-21T00:30:01.916Z,11.10
2019-05-21T00:33:29.372Z,11.80
2019-05-21T00:37:00.824Z,10.72
2019-05-21T00:40:28.605Z,11.83
2019-05-21T00:43:02.398Z,14.03
2019-05-21T00:45:35.613Z,17.10
2019-05-21T00:48:08.835Z,15.45
2019-05-21T00:50:42.044Z,15.25
2019-05-21T00:53:15.169Z,14.87
2019-05-21T00:55:49.823Z,16.62
2019-05-21T00:58:23.226Z,16.48
2019-05-21T01:00:56.537Z,14.90
2019-05-21T01:03:29.838Z,12.75
2019-05-21T01:06:03.155Z,14.13
2019-05-21T01:08:36.385Z,16.27
2019-05-21T01:11:09.665Z,14.43
2019-05-21T01:13:42.865Z,16.95
2019-05-21T01:16:16.107Z,13.55
2019-05-21T01:18:49.314Z,12.95
2019-05-21T01:21:22.558Z,13.18
2019-05-21T01:23:55.862Z,16.07
2019-05-21T01:26:29.113Z,14.23
2019-05-21T01:29:02.577Z,18.80
2019-05-21T01:31:35.820Z,17.20
2019-05-21T01:34:11.401Z,20.72
2019-05-21T01:36:43.928Z,18.45
2019-05-21T01:39:17.150Z,17.95
2019-05-21T01:41:50.399Z,18.52
2019-05-21T01:44:23.616Z,18.32
2019-05-21T01:46:56.866Z,17.40
2019-05-21T01:49:30.101Z,17.62
2019-05-21T01:52:03.286Z,16.48
2019-05-21T01:54:36.526Z,19.05
2019-05-21T01:57:09.691Z,19.87
2019-05-21T01:59:43.896Z,19.50
2019-05-21T02:02:16.985Z,17.87
2019-05-21T02:04:50.222Z,18.40
2019-05-21T02:07:23.448Z,15.65
2019-05-21T02:10:00.457Z,14.40
2019-05-21T02:12:33.750Z,13.88
2019-05-21T02:15:07.284Z,14.10
2019-05-21T02:17:40.443Z,16.82
2019-05-21T02:20:13.586Z,13.18
2019-05-21T02:22:47.288Z,14.65
2019-05-21T02:25:20.603Z,14.83
2019-05-21T02:27:53.923Z,17.23
2019-05-21T02:30:27.058Z,17.07
2019-05-21T02:33:00.288Z,14.47
2019-05-21T02:35:51.012Z,16.57
2019-05-21T02:38:08.436Z,15.50
2019-05-21T02:40:41.631Z,16.30
2019-05-21T02:43:14.866Z,17.77
2019-05-21T02:45:48.072Z,16.02
2019-05-21T02:48:21.292Z,14.98
2019-05-21T02:50:54.420Z,15.98
2019-05-21T02:53:27.940Z,16.97
2019-05-21T02:56:01.246Z,15.68
2019-05-21T02:58:34.571Z,15.15
2019-05-21T03:01:42.196Z,15.10
2019-05-21T03:04:15.445Z,14.98
2019-05-21T03:06:48.669Z,15.30
2019-05-21T03:09:21.837Z,15.43
2019-05-21T03:11:55.052Z,18.77
2019-05-21T03:14:28.289Z,15.48
2019-05-21T03:17:01.503Z,17.23
2019-05-21T03:19:34.771Z,15.90
2019-05-21T03:22:08.079Z,18.05
2019-05-21T03:24:41.234Z,16.65
2019-05-21T03:27:14.504Z,18.25
2019-05-21T03:29:47.853Z,13.45
2019-05-21T03:32:21.102Z,19.00
2019-05-21T03:34:55.484Z,14.50
2019-05-21T03:37:28.682Z,17.23
2019-05-21T03:40:02.150Z,19.05
2019-05-21T03:42:35.447Z,19.17
2019-05-21T03:45:10.123Z,17.87
2019-05-21T03:47:43.311Z,17.75
2019-05-21T03:50:16.616Z,21.00
2019-05-21T03:52:49.924Z,25.85
2019-05-21T03:55:23.214Z,23.65
2019-05-21T03:57:56.366Z,22.40
2019-05-21T04:00:29.593Z,24.47
2019-05-21T04:03:02.865Z,22.35
2019-05-21T04:05:36.039Z,22.40
2019-05-21T04:08:09.305Z,19.32
2019-05-21T04:10:42.537Z,19.35
2019-05-21T04:13:15.801Z,21.35
2019-05-21T04:16:10.860Z,19.48
2019-05-21T04:19:08.989Z,20.77
2019-05-21T04:21:42.325Z,19.15
2019-05-21T04:24:15.470Z,28.10
2019-05-21T04:26:48.529Z,25.60
2019-05-21T04:29:22.742Z,21.57
2019-05-21T04:31:56.989Z,25.10
2019-05-21T04:34:30.218Z,20.95
2019-05-21T04:37:10.566Z,19.80
2019-05-21T04:39:38.437Z,21.52
2019-05-21T04:42:11.744Z,20.10
2019-05-21T04:44:44.911Z,17.80
2019-05-21T04:47:18.146Z,21.70
2019-05-21T04:49:51.352Z,21.75
2019-05-21T04:52:24.663Z,18.77
2019-05-21T04:54:58.684Z,17.35
2019-05-21T04:57:31.936Z,19.27
2019-05-21T05:00:05.483Z,25.95
2019-05-21T05:02:39.154Z,23.00
2019-05-21T05:05:13.152Z,20.92
2019-05-21T05:07:46.500Z,17.75
2019-05-21T05:10:20.266Z,26.90
2019-05-21T05:12:53.557Z,24.45
2019-05-21T05:15:26.861Z,18.37
2019-05-21T05:18:00.172Z,15.20
2019-05-21T05:20:33.510Z,21.73
2019-05-21T05:23:06.937Z,18.12
2019-05-21T05:25:40.178Z,18.75
2019-05-21T05:28:13.468Z,15.90
2019-05-21T05:30:46.659Z,13.72
2019-05-21T05:33:19.894Z,18.65
2019-05-21T05:35:53.600Z,20.27
2019-05-21T05:38:26.817Z,12.23
2019-05-21T05:41:00.017Z,18.50
2019-05-21T05:43:33.294Z,16.52
2019-05-21T05:46:06.500Z,14.28
2019-05-21T05:48:46.180Z,13.83
2019-05-21T05:51:19.408Z,14.28
2019-05-21T05:53:59.106Z,13.03
2019-05-21T05:56:32.251Z,14.60
2019-05-21T05:59:05.622Z,12.63
2019-05-21T06:01:38.894Z,15.98
2019-05-21T06:04:12.048Z,16.85
2019-05-21T06:06:45.267Z,13.38
2019-05-21T06:09:18.494Z,13.93
2019-05-21T06:11:51.689Z,13.50
2019-05-21T06:14:25.010Z,11.93
2019-05-21T06:16:58.317Z,11.75
2019-05-21T06:19:31.556Z,14.75
2019-05-21T06:22:04.715Z,10.18
2019-05-21T06:24:37.890Z,12.65
2019-05-21T06:27:11.110Z,19.52
2019-05-21T06:29:44.354Z,11.48
2019-05-21T06:32:17.661Z,9.95
2019-05-21T06:34:51.063Z,8.80
2019-05-21T06:37:24.331Z,12.78
2019-05-21T06:39:57.586Z,8.70
2019-05-21T06:42:30.900Z,8.00
2019-05-21T06:45:04.411Z,9.63
2019-05-21T06:47:37.633Z,8.13
2019-05-21T06:50:11.377Z,6.65
2019-05-21T06:52:44.531Z,6.60
2019-05-21T06:55:18.056Z,7.12
2019-05-21T06:57:51.289Z,8.18
2019-05-21T07:00:24.618Z,9.30
2019-05-21T07:02:57.858Z,7.60
2019-05-21T07:05:31.169Z,5.17
2019-05-21T07:08:04.455Z,6.92
2019-05-21T07:10:37.728Z,9.03
2019-05-21T07:13:11.904Z,4.83
2019-05-21T07:15:45.251Z,6.62
2019-05-21T07:18:18.552Z,6.33
2019-05-21T07:20:51.873Z,10.50
2019-05-21T07:23:25.099Z,6.08
2019-05-21T07:25:58.463Z,6.78
2019-05-21T07:28:33.107Z,8.15
2019-05-21T07:31:06.544Z,7.00
2019-05-21T07:33:39.808Z,10.05
2019-05-21T07:36:13.172Z,6.20
2019-05-21T07:38:53.234Z,5.92
2019-05-21T07:41:21.379Z,6.75
2019-05-21T07:43:54.730Z,5.35
2019-05-21T07:46:28.088Z,6.30
2019-05-21T07:49:01.423Z,7.10
2019-05-21T07:51:34.690Z,4.80
2019-05-21T07:54:08.052Z,5.83
2019-05-21T07:56:41.372Z,5.83
2019-05-21T07:59:14.690Z,10.15
2019-05-21T08:01:47.888Z,6.67
2019-05-21T08:04:21.396Z,6.28
2019-05-21T08:06:54.672Z,6.53
2019-05-21T08:09:27.851Z,8.95
2019-05-21T08:12:01.160Z,8.18
2019-05-21T08:14:34.362Z,7.65
2019-05-21T08:17:07.601Z,7.65
2019-05-21T08:19:41.920Z,11.12
2019-05-21T08:22:15.140Z,8.33
2019-05-21T08:24:48.352Z,8.05
2019-05-21T08:27:21.678Z,7.53
2019-05-21T08:29:54.884Z,8.48
2019-05-21T08:32:28.241Z,7.92
2019-05-21T08:35:01.405Z,9.33
2019-05-21T08:37:34.656Z,8.23
2019-05-21T08:40:10.172Z,7.60
2019-05-21T08:42:43.388Z,9.13
2019-05-21T08:45:16.593Z,6.95
2019-05-21T08:47:49.858Z,9.23
2019-05-21T08:50:23.541Z,7.80
2019-05-21T08:52:58.014Z,6.80
2019-05-21T08:55:31.278Z,5.65
2019-05-21T08:58:07.307Z,7.05
2019-05-21T09:00:39.475Z,5.50
2019-05-21T09:03:12.708Z,4.17
2019-05-21T09:05:45.992Z,5.55
2019-05-21T09:08:19.311Z,4.72
2019-05-21T09:10:52.541Z,5.70
2019-05-21T09:13:25.741Z,5.80
2019-05-21T09:15:59.100Z,5.80
2019-05-21T09:18:32.362Z,9.88
2019-05-21T09:21:05.690Z,4.28
2019-05-21T09:23:39.051Z,5.33
2019-05-21T09:26:12.305Z,6.42
2019-05-21T09:28:45.554Z,7.25
2019-05-21T09:31:18.702Z,5.12
2019-05-21T09:33:51.845Z,6.22
2019-05-21T09:36:25.441Z,6.85
2019-05-21T09:38:58.699Z,7.47
2019-05-21T09:41:32.000Z,5.17
2019-05-21T09:44:05.406Z,6.78
2019-05-21T09:46:38.541Z,7.37
2019-05-21T09:49:12.804Z,11.35
2019-05-21T09:51:46.007Z,7.15
2019-05-21T09:54:19.426Z,7.75
2019-05-21T09:56:53.636Z,6.35
2019-05-21T09:59:37.707Z,8.00
2019-05-21T10:02:23.490Z,6.30
2019-05-21T10:04:56.741Z,5.87
2019-05-21T10:07:40.097Z,5.67
2019-05-21T10:10:06.058Z,5.10
2019-05-21T10:12:39.267Z,4.92
2019-05-21T10:15:12.489Z,7.65
2019-05-21T10:17:45.767Z,7.37
2019-05-21T10:20:19.571Z,6.60
2019-05-21T10:22:52.857Z,7.47
2019-05-21T10:25:26.013Z,8.18
2019-05-21T10:27:59.240Z,7.17
2019-05-21T10:30:32.481Z,5.58
2019-05-21T10:33:05.795Z,7.80
2019-05-21T10:35:39.015Z,6.50
2019-05-21T10:38:12.143Z,8.78
2019-05-21T10:40:45.380Z,7.03
2019-05-21T10:43:18.585Z,6.75
2019-05-21T10:45:51.833Z,5.87
2019-05-21T10:48:25.054Z,6.37
2019-05-21T10:50:58.258Z,9.23
2019-05-21T10:53:31.531Z,7.15
2019-05-21T10:56:04.831Z,5.83
2019-05-21T10:58:38.347Z,9.48
2019-05-21T11:01:21.111Z,5.80
2019-05-21T11:04:12.055Z,5.28
2019-05-21T11:06:46.582Z,5.58
2019-05-21T11:09:21.827Z,6.53
2019-05-21T11:11:55.178Z,5.25
2019-05-21T11:14:28.768Z,8.78
2019-05-21T11:17:03.105Z,6.15
2019-05-21T11:19:36.473Z,9.50
2019-05-21T11:22:12.092Z,9.70
2019-05-21T11:24:45.595Z,9.05
2019-05-21T11:27:18.746Z,7.80
2019-05-21T11:29:52.039Z,6.65
2019-05-21T11:32:25.338Z,7.05
2019-05-21T11:34:58.751Z,7.35
2019-05-21T11:37:32.100Z,10.18
2019-05-21T11:40:09.301Z,6.53
2019-05-21T11:42:42.871Z,10.65
2019-05-21T11:45:31.082Z,5.85
2019-05-21T11:47:54.420Z,4.30
2019-05-21T11:50:26.506Z,6.20
2019-05-21T11:52:59.735Z,5.72
2019-05-21T11:55:34.337Z,6.45
2019-05-21T11:58:07.860Z,6.20
2019-05-21T12:00:41.164Z,8.85
2019-05-21T12:03:14.397Z,7.33
2019-05-21T12:05:47.620Z,5.45
2019-05-21T12:08:21.857Z,6.10
2019-05-21T12:10:55.065Z,7.10
2019-05-21T12:13:29.445Z,5.37
2019-05-21T12:16:02.780Z,5.30
2019-05-21T12:18:35.948Z,6.03
2019-05-21T12:21:09.084Z,9.80
2019-05-21T12:23:42.310Z,6.05
2019-05-21T12:26:15.820Z,7.58
2019-05-21T12:28:49.042Z,5.47
2019-05-21T12:31:22.379Z,7.65
2019-05-21T12:33:55.599Z,12.65
2019-05-21T12:36:28.899Z,7.58
2019-05-21T12:39:13.843Z,8.28
2019-05-21T12:41:37.143Z,9.18
2019-05-21T12:44:10.357Z,7.17
2019-05-21T12:46:43.781Z,9.15
2019-05-21T12:49:17.057Z,8.13
2019-05-21T12:51:50.277Z,8.83
2019-05-21T12:54:24.313Z,8.58
2019-05-21T12:56:57.611Z,11.18
2019-05-21T12:59:30.906Z,9.55
2019-05-21T13:02:04.101Z,9.08
2019-05-21T13:04:37.380Z,11.57
2019-05-21T13:07:10.782Z,9.08
2019-05-21T13:09:44.026Z,9.83
2019-05-21T13:12:17.244Z,11.70
2019-05-21T13:14:50.515Z,16.90
2019-05-21T13:17:23.749Z,9.48
2019-05-21T13:19:57.018Z,8.28
2019-05-21T13:22:30.241Z,9.65
2019-05-21T13:25:03.542Z,11.45
2019-05-21T13:27:36.947Z,14.83
2019-05-21T13:30:11.004Z,10.15
2019-05-21T13:32:44.210Z,13.05
2019-05-21T13:35:18.850Z,9.65
2019-05-21T13:37:52.089Z,15.50
2019-05-21T13:40:25.857Z,11.20
2019-05-21T13:43:00.026Z,8.70
2019-05-21T13:45:33.269Z,9.20
2019-05-21T13:48:06.678Z,13.90
2019-05-21T13:50:40.245Z,11.15
2019-05-21T13:53:13.580Z,11.35
2019-05-21T13:55:47.243Z,8.98
2019-05-21T13:58:20.487Z,8.95
2019-05-21T14:01:40.754Z,8.13
2019-05-21T14:04:54.644Z,7.87
2019-05-21T14:08:01.860Z,8.28
2019-05-21T14:10:54.742Z,7.62
2019-05-21T14:13:28.143Z,9.45
2019-05-21T14:16:01.965Z,8.00
2019-05-21T14:18:36.996Z,8.13
2019-05-21T14:21:10.467Z,12.20
2019-05-21T14:23:43.719Z,9.30
2019-05-21T14:26:16.977Z,10.30
2019-05-21T14:28:50.271Z,6.95
2019-05-21T14:31:23.423Z,10.95
2019-05-21T14:33:56.604Z,10.45
2019-05-21T14:36:29.825Z,6.95
2019-05-21T14:39:06.361Z,8.78
2019-05-21T14:41:39.147Z,9.78
2019-05-21T14:44:12.473Z,12.07
2019-05-21T14:46:45.701Z,9.48
2019-05-21T14:49:19.013Z,8.98
2019-05-21T14:51:52.224Z,14.38
2019-05-21T14:54:27.226Z,9.80
2019-05-21T14:57:03.160Z,7.25
2019-05-21T14:59:36.406Z,11.90
2019-05-21T15:02:10.796Z,9.88
2019-05-21T15:04:44.361Z,6.70
2019-05-21T15:07:17.896Z,7.22
2019-05-21T15:09:53.589Z,7.92
2019-05-21T15:12:26.426Z,9.73
2019-05-21T15:14:59.575Z,7.25
2019-05-21T15:17:32.780Z,7.75
2019-05-21T15:20:09.534Z,6.37
2019-05-21T15:22:42.747Z,9.38
2019-05-21T15:25:15.936Z,7.80
2019-05-21T15:27:50.130Z,8.03
2019-05-21T15:30:23.372Z,7.75
2019-05-21T15:32:57.698Z,7.58
2019-05-21T15:35:30.909Z,6.60
2019-05-21T15:38:04.133Z,6.40
2019-05-21T15:40:37.448Z,5.37
2019-05-21T15:43:11.183Z,4.87
2019-05-21T15:45:45.310Z,6.97
2019-05-21T15:48:18.918Z,8.03
2019-05-21T15:50:52.199Z,7.08
2019-05-21T15:53:25.907Z,6.83
2019-05-21T15:55:59.224Z,7.37
2019-05-21T15:58:32.520Z,8.83
2019-05-21T16:01:06.190Z,10.13
2019-05-21T16:03:39.398Z,7.95
2019-05-21T16:14:12.898Z,9.35
2019-05-21T16:16:46.313Z,7.00
2019-05-21T16:19:21.377Z,8.88
2019-05-21T16:21:54.518Z,6.83
2019-05-21T16:24:27.873Z,6.87
2019-05-21T16:27:01.162Z,7.55
2019-05-21T16:29:34.316Z,9.28
2019-05-21T16:32:07.678Z,8.28
2019-05-21T16:34:41.174Z,6.53
2019-05-21T16:37:14.394Z,7.37
2019-05-21T16:39:47.600Z,11.12
2019-05-21T16:42:21.532Z,13.10
2019-05-21T16:44:54.660Z,8.43
2019-05-21T16:47:43.944Z,8.78
2019-05-21T16:50:03.354Z,8.25
2019-05-21T16:52:36.761Z,7.72
2019-05-21T16:55:10.378Z,9.88
2019-05-21T16:57:45.034Z,12.03
2019-05-21T17:00:20.655Z,7.50
2019-05-21T17:02:54.096Z,9.30
2019-05-21T17:05:27.424Z,9.58
2019-05-21T17:08:00.615Z,7.55
2019-05-21T17:10:34.838Z,9.43
2019-05-21T17:13:08.072Z,10.15
2019-05-21T17:15:41.545Z,8.13
2019-05-21T17:18:14.859Z,12.45
2019-05-21T17:20:48.084Z,9.83
2019-05-21T17:23:21.315Z,9.30
2019-05-21T17:25:54.517Z,8.18
2019-05-21T17:28:28.154Z,10.25
2019-05-21T17:31:01.501Z,13.30
2019-05-21T17:33:34.925Z,14.85
2019-05-21T17:36:08.348Z,14.80
2019-05-21T17:38:43.440Z,11.00
2019-05-21T17:41:17.671Z,10.50
2019-05-21T17:43:51.027Z,10.32
2019-05-21T17:46:24.360Z,9.60
2019-05-21T17:48:57.535Z,13.00
2019-05-21T17:51:30.949Z,13.35
2019-05-21T17:54:04.387Z,13.22
2019-05-21T17:56:37.738Z,12.03
2019-05-21T17:59:11.189Z,11.65
2019-05-21T18:01:44.603Z,12.05
2019-05-21T18:04:19.325Z,11.25
2019-05-21T18:06:53.636Z,10.55
2019-05-21T18:09:27.769Z,12.75
2019-05-21T18:12:01.226Z,12.75
2019-05-21T18:14:34.558Z,11.68
2019-05-21T18:17:09.553Z,13.40
2019-05-21T18:19:43.172Z,14.43
2019-05-21T18:22:18.535Z,18.02
2019-05-21T18:24:51.952Z,20.82
2019-05-21T18:27:26.364Z,52.13
2019-05-21T18:30:13.310Z,41.20
2019-05-21T18:32:49.365Z,26.15
2019-05-21T18:35:22.699Z,33.70
2019-05-21T18:37:56.188Z,19.90
2019-05-21T18:40:29.447Z,15.55
2019-05-21T18:43:02.678Z,16.87
2019-05-21T18:45:35.898Z,9.95
2019-05-21T18:48:09.338Z,12.73
2019-05-21T18:50:42.506Z,8.68
2019-05-21T18:53:15.939Z,13.88
2019-05-21T18:55:49.179Z,14.83
2019-05-21T18:58:22.419Z,15.18
2019-05-21T19:00:56.427Z,12.68
2019-05-21T19:03:29.943Z,14.55
2019-05-21T19:06:03.365Z,14.35
2019-05-21T19:08:36.647Z,12.93
2019-05-21T19:11:09.961Z,10.60
2019-05-21T19:13:43.236Z,11.33
2019-05-21T19:16:16.505Z,10.63
2019-05-21T19:18:49.783Z,8.53
2019-05-21T19:21:23.003Z,13.13
2019-05-21T19:23:56.411Z,11.33
2019-05-21T19:26:30.053Z,11.68
2019-05-21T19:29:03.512Z,12.85
2019-05-21T19:31:36.843Z,15.43
2019-05-21T19:34:10.113Z,12.15
2019-05-21T19:36:43.358Z,13.53
2019-05-21T19:39:16.640Z,15.68
2019-05-21T19:41:50.163Z,10.65
2019-05-21T19:44:23.522Z,14.50
2019-05-21T19:46:56.913Z,13.85
2019-05-21T19:49:30.215Z,12.75
2019-05-21T19:52:03.439Z,16.77
2019-05-21T19:54:36.766Z,17.60
2019-05-21T19:57:10.213Z,23.25
2019-05-21T19:59:43.518Z,17.85
2019-05-21T20:02:16.825Z,46.25
2019-05-21T20:04:50.489Z,16.95
2019-05-21T20:07:25.813Z,14.73
2019-05-21T20:10:00.483Z,15.63
2019-05-21T20:12:34.152Z,16.05
2019-05-21T20:15:09.017Z,16.15
2019-05-21T20:17:43.838Z,25.60
2019-05-21T20:20:20.067Z,27.55
2019-05-21T20:22:53.773Z,24.15
2019-05-21T20:25:27.212Z,19.23
2019-05-21T20:28:00.885Z,21.68
2019-05-21T20:30:35.417Z,18.67
2019-05-21T20:33:08.754Z,13.70
2019-05-21T20:35:43.100Z,14.35
2019-05-21T20:38:17.112Z,13.48
2019-05-21T20:40:50.422Z,13.53
2019-05-21T20:43:24.921Z,14.83
2019-05-21T20:45:58.841Z,15.30
2019-05-21T20:48:34.943Z,16.42
2019-05-21T20:51:09.384Z,14.65
2019-05-21T20:53:42.600Z,15.48
2019-05-21T20:56:15.936Z,16.67
2019-05-21T20:58:49.159Z,15.48
2019-05-21T21:01:22.451Z,13.32
2019-05-21T21:03:56.519Z,14.20
2019-05-21T21:06:35.410Z,16.60
2019-05-21T21:09:08.063Z,16.80
2019-05-21T21:11:43.679Z,12.65
2019-05-21T21:14:20.122Z,13.28
2019-05-21T21:16:53.355Z,16.25
2019-05-21T21:19:26.815Z,12.28
2019-05-21T21:22:00.083Z,13.28
2019-05-21T21:24:33.722Z,14.90
2019-05-21T21:27:07.508Z,14.90
2019-05-21T21:29:41.033Z,13.22
2019-05-21T21:32:14.459Z,12.13
2019-05-21T21:34:47.888Z,15.48
2019-05-21T21:37:22.740Z,13.72
2019-05-21T21:39:55.951Z,13.58
2019-05-21T21:42:29.428Z,15.65
2019-05-21T21:45:02.823Z,15.35
2019-05-21T21:47:36.686Z,15.43
2019-05-21T21:50:12.925Z,14.65
2019-05-21T21:52:46.176Z,15.10
2019-05-21T21:55:19.799Z,15.72
2019-05-21T21:57:53.156Z,13.28
2019-05-21T22:01:30.362Z,16.82
2019-05-21T22:04:06.412Z,15.80
2019-05-21T22:06:42.303Z,15.03
2019-05-21T22:09:41.931Z,14.70
2019-05-21T22:12:18.758Z,14.98
2019-05-21T22:15:01.135Z,14.10
2019-05-21T22:17:34.679Z,17.30
2019-05-21T22:20:09.692Z,15.40
2019-05-21T22:22:42.825Z,13.55
2019-05-21T22:25:16.151Z,13.35
2019-05-21T22:27:49.377Z,17.50
2019-05-21T22:30:23.478Z,12.47
2019-05-21T22:32:56.696Z,16.52
2019-05-21T22:35:29.835Z,13.72
2019-05-21T22:38:03.051Z,16.70
2019-05-21T22:40:36.365Z,12.68
2019-05-21T22:43:09.593Z,16.30
2019-05-21T22:45:42.824Z,12.65
2019-05-21T22:48:16.148Z,12.80
2019-05-21T22:50:49.348Z,14.18
2019-05-21T22:53:22.510Z,13.88
2019-05-21T22:55:56.234Z,12.75
2019-05-21T22:58:29.467Z,12.37
2019-05-21T23:01:03.282Z,16.45
2019-05-21T23:03:36.605Z,11.73
2019-05-21T23:06:09.821Z,13.13
2019-05-21T23:08:43.037Z,11.03
2019-05-21T23:11:16.265Z,12.65
2019-05-21T23:13:49.464Z,14.83
2019-05-21T23:16:24.083Z,15.20
2019-05-21T23:19:16.678Z,12.25
2019-05-21T23:21:54.630Z,14.43
2019-05-21T23:24:29.781Z,11.33
2019-05-21T23:27:04.657Z,15.32
2019-05-21T23:29:39.503Z,17.20
2019-05-21T23:32:13.633Z,13.95
2019-05-21T23:34:47.871Z,12.73
2019-05-21T23:37:23.871Z,17.87
2019-05-21T23:39:57.932Z,13.85
2019-05-21T23:42:31.352Z,13.10
2019-05-21T23:45:06.046Z,13.40
2019-05-21T23:47:39.724Z,14.93
2019-05-21T23:50:15.406Z,11.43
2019-05-21T23:52:49.048Z,15.40
2019-05-21T23:55:22.298Z,16.32
2019-05-21T23:57:56.279Z,15.72
